sensor_id;sensor_type;location;lat;lon;timestamp;temperature;humidity
15083;DHT22;7640;53.116;6.878;2023-06-26T00:00:14;24.30;99.90
15083;DHT22;7640;53.116;6.878;2023-06-26T00:02:47;24.30;99.90
15083;DHT22;7640;53.116;6.878;2023-06-26T00:05:19;24.20;99.90
15083;DHT22;7640;53.116;6.878;2023-06-26T00:07:51;24.20;99.90
15083;DHT22;7640;53.116;6.878;2023-06-26T00:10:23;24.20;99.90
15083;DHT22;7640;53.116;6.878;2023-06-26T00:12:55;24.20;99.90
15083;DHT22;7640;53.116;6.878;2023-06-26T00:15:27;24.10;99.90
15083;DHT22;7640;53.116;6.878;2023-06-26T00:18:00;24.10;99.90
15083;DHT22;7640;53.116;6.878;2023-06-26T00:20:35;24.00;99.90
15083;DHT22;7640;53.116;6.878;2023-06-26T00:23:12;24.00;99.90
15083;DHT22;7640;53.116;6.878;2023-06-26T00:25:46;24.00;99.90
15083;DHT22;7640;53.116;6.878;2023-06-26T00:28:17;23.90;99.90
15083;DHT22;7640;53.116;6.878;2023-06-26T00:30:49;23.90;99.90
15083;DHT22;7640;53.116;6.878;2023-06-26T00:33:28;24.00;99.90
15083;DHT22;7640;53.116;6.878;2023-06-26T00:35:59;23.90;99.90
15083;DHT22;7640;53.116;6.878;2023-06-26T00:38:36;23.80;99.90
15083;DHT22;7640;53.116;6.878;2023-06-26T00:41:11;23.80;99.90
15083;DHT22;7640;53.116;6.878;2023-06-26T00:43:44;23.80;99.90
15083;DHT22;7640;53.116;6.878;2023-06-26T00:46:17;23.70;99.90
15083;DHT22;7640;53.116;6.878;2023-06-26T00:48:52;23.70;99.90
15083;DHT22;7640;53.116;6.878;2023-06-26T00:51:24;23.70;99.90
15083;DHT22;7640;53.116;6.878;2023-06-26T00:53:58;23.70;99.90
15083;DHT22;7640;53.116;6.878;2023-06-26T00:56:29;23.70;99.90
15083;DHT22;7640;53.116;6.878;2023-06-26T00:59:02;23.60;99.90
15083;DHT22;7640;53.116;6.878;2023-06-26T01:01:46;23.60;99.90
15083;DHT22;7640;53.116;6.878;2023-06-26T01:04:20;23.60;99.90
15083;DHT22;7640;53.116;6.878;2023-06-26T01:06:56;23.60;99.90
15083;DHT22;7640;53.116;6.878;2023-06-26T01:09:29;23.50;99.90
15083;DHT22;7640;53.116;6.878;2023-06-26T01:12:03;23.50;99.90
15083;DHT22;7640;53.116;6.878;2023-06-26T01:14:36;23.50;99.90
15083;DHT22;7640;53.116;6.878;2023-06-26T01:17:13;23.50;99.90
15083;DHT22;7640;53.116;6.878;2023-06-26T01:19:48;23.40;99.90
15083;DHT22;7640;53.116;6.878;2023-06-26T01:22:25;23.40;99.90
15083;DHT22;7640;53.116;6.878;2023-06-26T01:25:15;23.40;99.90
15083;DHT22;7640;53.116;6.878;2023-06-26T01:27:54;23.40;99.90
15083;DHT22;7640;53.116;6.878;2023-06-26T01:30:33;23.40;99.90
15083;DHT22;7640;53.116;6.878;2023-06-26T01:33:08;23.30;99.90
15083;DHT22;7640;53.116;6.878;2023-06-26T01:35:41;23.30;99.90
15083;DHT22;7640;53.116;6.878;2023-06-26T01:38:14;23.30;99.90
15083;DHT22;7640;53.116;6.878;2023-06-26T01:40:45;23.30;99.90
15083;DHT22;7640;53.116;6.878;2023-06-26T01:43:23;23.20;99.90
15083;DHT22;7640;53.116;6.878;2023-06-26T01:46:01;23.20;99.90
15083;DHT22;7640;53.116;6.878;2023-06-26T01:48:46;23.20;99.90
15083;DHT22;7640;53.116;6.878;2023-06-26T01:51:24;23.20;99.90
15083;DHT22;7640;53.116;6.878;2023-06-26T01:53:57;23.20;99.90
15083;DHT22;7640;53.116;6.878;2023-06-26T01:56:35;23.10;99.90
15083;DHT22;7640;53.116;6.878;2023-06-26T01:59:12;23.10;99.90
15083;DHT22;7640;53.116;6.878;2023-06-26T02:01:42;23.10;99.90
15083;DHT22;7640;53.116;6.878;2023-06-26T02:04:13;23.10;99.90
15083;DHT22;7640;53.116;6.878;2023-06-26T02:06:44;23.00;99.90
15083;DHT22;7640;53.116;6.878;2023-06-26T02:09:14;23.00;99.90
15083;DHT22;7640;53.116;6.878;2023-06-26T02:11:45;23.00;99.90
15083;DHT22;7640;53.116;6.878;2023-06-26T02:14:17;22.90;99.90
15083;DHT22;7640;53.116;6.878;2023-06-26T02:16:46;22.90;99.90
15083;DHT22;7640;53.116;6.878;2023-06-26T02:19:19;22.90;99.90
15083;DHT22;7640;53.116;6.878;2023-06-26T02:21:50;22.90;99.90
15083;DHT22;7640;53.116;6.878;2023-06-26T02:24:20;22.90;99.90
15083;DHT22;7640;53.116;6.878;2023-06-26T02:26:49;22.80;99.90
15083;DHT22;7640;53.116;6.878;2023-06-26T02:29:22;22.80;99.90
15083;DHT22;7640;53.116;6.878;2023-06-26T02:31:54;22.80;99.90
15083;DHT22;7640;53.116;6.878;2023-06-26T02:34:27;22.80;99.90
15083;DHT22;7640;53.116;6.878;2023-06-26T02:37:02;22.80;99.90
15083;DHT22;7640;53.116;6.878;2023-06-26T02:39:38;22.80;99.90
15083;DHT22;7640;53.116;6.878;2023-06-26T02:42:10;22.70;99.90
15083;DHT22;7640;53.116;6.878;2023-06-26T02:44:46;22.70;99.90
15083;DHT22;7640;53.116;6.878;2023-06-26T02:47:17;22.70;99.90
15083;DHT22;7640;53.116;6.878;2023-06-26T02:49:47;22.60;99.90
15083;DHT22;7640;53.116;6.878;2023-06-26T02:52:18;22.60;99.90
15083;DHT22;7640;53.116;6.878;2023-06-26T02:54:50;22.60;99.90
15083;DHT22;7640;53.116;6.878;2023-06-26T02:57:21;22.60;99.90
15083;DHT22;7640;53.116;6.878;2023-06-26T02:59:54;22.60;99.90
15083;DHT22;7640;53.116;6.878;2023-06-26T03:02:27;22.60;99.90
15083;DHT22;7640;53.116;6.878;2023-06-26T03:05:06;22.50;99.90
15083;DHT22;7640;53.116;6.878;2023-06-26T03:07:45;22.50;99.90
15083;DHT22;7640;53.116;6.878;2023-06-26T03:10:16;22.40;99.90
15083;DHT22;7640;53.116;6.878;2023-06-26T03:12:47;22.40;99.90
15083;DHT22;7640;53.116;6.878;2023-06-26T03:15:21;22.40;99.90
15083;DHT22;7640;53.116;6.878;2023-06-26T03:17:55;22.40;99.90
15083;DHT22;7640;53.116;6.878;2023-06-26T03:20:34;22.30;99.90
15083;DHT22;7640;53.116;6.878;2023-06-26T03:23:10;22.30;99.90
15083;DHT22;7640;53.116;6.878;2023-06-26T03:25:42;22.30;99.90
15083;DHT22;7640;53.116;6.878;2023-06-26T03:28:16;22.30;99.90
15083;DHT22;7640;53.116;6.878;2023-06-26T03:31:02;22.30;99.90
15083;DHT22;7640;53.116;6.878;2023-06-26T03:33:39;22.30;99.90
15083;DHT22;7640;53.116;6.878;2023-06-26T03:36:11;22.30;99.90
15083;DHT22;7640;53.116;6.878;2023-06-26T03:38:45;22.30;99.90
15083;DHT22;7640;53.116;6.878;2023-06-26T03:41:16;22.30;99.90
15083;DHT22;7640;53.116;6.878;2023-06-26T03:43:48;22.30;99.90
15083;DHT22;7640;53.116;6.878;2023-06-26T03:46:22;22.30;99.90
15083;DHT22;7640;53.116;6.878;2023-06-26T03:48:54;22.40;99.90
15083;DHT22;7640;53.116;6.878;2023-06-26T03:51:24;22.40;99.90
15083;DHT22;7640;53.116;6.878;2023-06-26T03:53:55;22.40;99.90
15083;DHT22;7640;53.116;6.878;2023-06-26T03:56:27;22.50;99.90
15083;DHT22;7640;53.116;6.878;2023-06-26T03:59:00;22.50;99.90
15083;DHT22;7640;53.116;6.878;2023-06-26T04:01:36;22.60;99.90
15083;DHT22;7640;53.116;6.878;2023-06-26T04:04:08;22.60;99.90
15083;DHT22;7640;53.116;6.878;2023-06-26T04:06:40;22.70;99.90
15083;DHT22;7640;53.116;6.878;2023-06-26T04:09:14;22.70;99.90
15083;DHT22;7640;53.116;6.878;2023-06-26T04:11:46;22.70;99.90
15083;DHT22;7640;53.116;6.878;2023-06-26T04:14:22;22.80;99.90
15083;DHT22;7640;53.116;6.878;2023-06-26T04:17:06;22.80;99.90
15083;DHT22;7640;53.116;6.878;2023-06-26T04:19:38;22.80;99.90
15083;DHT22;7640;53.116;6.878;2023-06-26T04:22:13;22.90;99.90
15083;DHT22;7640;53.116;6.878;2023-06-26T04:24:44;22.90;99.90
15083;DHT22;7640;53.116;6.878;2023-06-26T04:27:16;22.90;99.90
15083;DHT22;7640;53.116;6.878;2023-06-26T04:29:46;22.90;99.90
15083;DHT22;7640;53.116;6.878;2023-06-26T04:32:17;22.90;99.90
15083;DHT22;7640;53.116;6.878;2023-06-26T04:34:47;23.00;99.90
15083;DHT22;7640;53.116;6.878;2023-06-26T04:37:29;23.00;99.90
15083;DHT22;7640;53.116;6.878;2023-06-26T04:40:08;23.00;99.90
15083;DHT22;7640;53.116;6.878;2023-06-26T04:42:50;22.90;99.90
15083;DHT22;7640;53.116;6.878;2023-06-26T04:45:23;23.00;99.90
15083;DHT22;7640;53.116;6.878;2023-06-26T04:48:15;23.00;99.90
15083;DHT22;7640;53.116;6.878;2023-06-26T04:50:46;23.10;99.90
15083;DHT22;7640;53.116;6.878;2023-06-26T04:53:22;23.20;99.90
15083;DHT22;7640;53.116;6.878;2023-06-26T04:55:58;23.10;99.90
15083;DHT22;7640;53.116;6.878;2023-06-26T04:58:30;23.20;99.90
15083;DHT22;7640;53.116;6.878;2023-06-26T05:01:08;23.20;99.90
15083;DHT22;7640;53.116;6.878;2023-06-26T05:03:46;23.30;99.90
15083;DHT22;7640;53.116;6.878;2023-06-26T05:06:17;23.30;99.90
15083;DHT22;7640;53.116;6.878;2023-06-26T05:08:47;23.40;99.90
15083;DHT22;7640;53.116;6.878;2023-06-26T05:11:20;23.40;99.90
15083;DHT22;7640;53.116;6.878;2023-06-26T05:13:51;23.40;99.90
15083;DHT22;7640;53.116;6.878;2023-06-26T05:16:22;23.40;99.90
15083;DHT22;7640;53.116;6.878;2023-06-26T05:18:56;23.50;99.90
15083;DHT22;7640;53.116;6.878;2023-06-26T05:21:29;23.50;99.90
15083;DHT22;7640;53.116;6.878;2023-06-26T05:24:03;23.60;99.90
15083;DHT22;7640;53.116;6.878;2023-06-26T05:26:40;23.60;99.90
15083;DHT22;7640;53.116;6.878;2023-06-26T05:29:13;23.40;99.90
15083;DHT22;7640;53.116;6.878;2023-06-26T05:31:45;23.20;99.90
15083;DHT22;7640;53.116;6.878;2023-06-26T05:34:20;23.00;99.90
15083;DHT22;7640;53.116;6.878;2023-06-26T05:36:59;22.80;99.90
15083;DHT22;7640;53.116;6.878;2023-06-26T05:39:34;22.70;99.90
15083;DHT22;7640;53.116;6.878;2023-06-26T05:42:06;22.60;99.90
15083;DHT22;7640;53.116;6.878;2023-06-26T05:44:41;22.60;99.90
15083;DHT22;7640;53.116;6.878;2023-06-26T05:47:13;22.70;99.90
15083;DHT22;7640;53.116;6.878;2023-06-26T05:49:48;22.70;99.90
15083;DHT22;7640;53.116;6.878;2023-06-26T05:52:23;22.70;99.90
15083;DHT22;7640;53.116;6.878;2023-06-26T05:55:01;22.70;99.90
15083;DHT22;7640;53.116;6.878;2023-06-26T05:57:39;22.70;99.90
15083;DHT22;7640;53.116;6.878;2023-06-26T06:00:14;22.70;99.90
15083;DHT22;7640;53.116;6.878;2023-06-26T06:02:45;22.70;99.90
15083;DHT22;7640;53.116;6.878;2023-06-26T06:05:15;22.70;99.90
15083;DHT22;7640;53.116;6.878;2023-06-26T06:07:47;22.70;99.90
15083;DHT22;7640;53.116;6.878;2023-06-26T06:10:18;22.70;99.90
15083;DHT22;7640;53.116;6.878;2023-06-26T06:12:48;22.80;99.90
15083;DHT22;7640;53.116;6.878;2023-06-26T06:15:20;22.70;99.90
15083;DHT22;7640;53.116;6.878;2023-06-26T06:17:49;22.60;99.90
15083;DHT22;7640;53.116;6.878;2023-06-26T06:20:26;22.50;99.90
15083;DHT22;7640;53.116;6.878;2023-06-26T06:23:00;22.50;99.90
15083;DHT22;7640;53.116;6.878;2023-06-26T06:25:31;22.40;99.90
15083;DHT22;7640;53.116;6.878;2023-06-26T06:28:04;22.40;99.90
15083;DHT22;7640;53.116;6.878;2023-06-26T06:30:36;22.30;99.90
15083;DHT22;7640;53.116;6.878;2023-06-26T06:33:12;22.20;99.90
15083;DHT22;7640;53.116;6.878;2023-06-26T06:35:45;22.10;99.90
15083;DHT22;7640;53.116;6.878;2023-06-26T06:38:15;22.10;99.90
15083;DHT22;7640;53.116;6.878;2023-06-26T06:40:48;22.10;99.90
15083;DHT22;7640;53.116;6.878;2023-06-26T06:43:18;22.10;99.90
15083;DHT22;7640;53.116;6.878;2023-06-26T06:45:48;22.10;99.90
15083;DHT22;7640;53.116;6.878;2023-06-26T06:48:20;22.10;99.90
15083;DHT22;7640;53.116;6.878;2023-06-26T06:50:56;22.20;99.90
15083;DHT22;7640;53.116;6.878;2023-06-26T06:53:28;22.30;99.90
15083;DHT22;7640;53.116;6.878;2023-06-26T06:55:58;22.40;99.90
15083;DHT22;7640;53.116;6.878;2023-06-26T06:58:29;22.40;99.90
15083;DHT22;7640;53.116;6.878;2023-06-26T07:01:01;22.50;99.90
15083;DHT22;7640;53.116;6.878;2023-06-26T07:03:33;22.40;99.90
15083;DHT22;7640;53.116;6.878;2023-06-26T07:06:05;22.40;99.90
15083;DHT22;7640;53.116;6.878;2023-06-26T07:08:41;22.40;99.90
15083;DHT22;7640;53.116;6.878;2023-06-26T07:11:12;22.40;99.90
15083;DHT22;7640;53.116;6.878;2023-06-26T07:13:47;22.50;99.90
15083;DHT22;7640;53.116;6.878;2023-06-26T07:16:18;22.60;99.90
15083;DHT22;7640;53.116;6.878;2023-06-26T07:18:50;22.70;99.90
15083;DHT22;7640;53.116;6.878;2023-06-26T07:21:23;22.70;99.90
15083;DHT22;7640;53.116;6.878;2023-06-26T07:23:53;22.70;99.90
15083;DHT22;7640;53.116;6.878;2023-06-26T07:26:24;22.70;99.90
15083;DHT22;7640;53.116;6.878;2023-06-26T07:29:06;22.70;99.90
15083;DHT22;7640;53.116;6.878;2023-06-26T07:31:39;22.80;99.90
15083;DHT22;7640;53.116;6.878;2023-06-26T07:34:17;22.80;99.90
15083;DHT22;7640;53.116;6.878;2023-06-26T07:36:49;22.90;99.90
15083;DHT22;7640;53.116;6.878;2023-06-26T07:39:27;22.90;99.90
15083;DHT22;7640;53.116;6.878;2023-06-26T07:41:57;23.00;99.90
15083;DHT22;7640;53.116;6.878;2023-06-26T07:44:29;23.10;99.90
15083;DHT22;7640;53.116;6.878;2023-06-26T07:46:58;23.20;99.90
15083;DHT22;7640;53.116;6.878;2023-06-26T07:49:29;23.20;99.90
15083;DHT22;7640;53.116;6.878;2023-06-26T07:52:03;23.30;99.90
15083;DHT22;7640;53.116;6.878;2023-06-26T07:54:35;23.40;99.90
15083;DHT22;7640;53.116;6.878;2023-06-26T07:57:07;23.50;99.90
15083;DHT22;7640;53.116;6.878;2023-06-26T07:59:41;23.60;99.90
15083;DHT22;7640;53.116;6.878;2023-06-26T08:02:11;23.50;99.90
15083;DHT22;7640;53.116;6.878;2023-06-26T08:04:42;23.60;99.90
15083;DHT22;7640;53.116;6.878;2023-06-26T08:07:16;23.60;99.90
15083;DHT22;7640;53.116;6.878;2023-06-26T08:09:47;23.60;99.90
15083;DHT22;7640;53.116;6.878;2023-06-26T08:12:18;23.70;99.90
15083;DHT22;7640;53.116;6.878;2023-06-26T08:14:48;23.80;99.90
15083;DHT22;7640;53.116;6.878;2023-06-26T08:17:18;23.90;99.90
15083;DHT22;7640;53.116;6.878;2023-06-26T08:19:50;23.90;99.90
15083;DHT22;7640;53.116;6.878;2023-06-26T08:22:22;24.00;99.90
15083;DHT22;7640;53.116;6.878;2023-06-26T08:24:55;24.10;99.90
15083;DHT22;7640;53.116;6.878;2023-06-26T08:27:28;24.00;99.90
15083;DHT22;7640;53.116;6.878;2023-06-26T08:30:01;24.10;99.90
15083;DHT22;7640;53.116;6.878;2023-06-26T08:32:36;24.00;99.90
15083;DHT22;7640;53.116;6.878;2023-06-26T08:35:22;24.00;99.90
15083;DHT22;7640;53.116;6.878;2023-06-26T08:38:15;24.10;99.90
15083;DHT22;7640;53.116;6.878;2023-06-26T08:40:48;24.30;99.90
15083;DHT22;7640;53.116;6.878;2023-06-26T08:43:18;24.30;99.90
15083;DHT22;7640;53.116;6.878;2023-06-26T08:45:51;24.40;99.90
15083;DHT22;7640;53.116;6.878;2023-06-26T08:48:21;24.50;99.90
15083;DHT22;7640;53.116;6.878;2023-06-26T08:50:58;24.60;99.90
15083;DHT22;7640;53.116;6.878;2023-06-26T08:53:43;24.70;99.90
15083;DHT22;7640;53.116;6.878;2023-06-26T08:56:18;24.70;99.90
15083;DHT22;7640;53.116;6.878;2023-06-26T08:58:50;24.70;99.90
15083;DHT22;7640;53.116;6.878;2023-06-26T09:01:22;24.70;99.90
15083;DHT22;7640;53.116;6.878;2023-06-26T09:03:55;24.80;99.90
15083;DHT22;7640;53.116;6.878;2023-06-26T09:06:27;24.90;99.90
15083;DHT22;7640;53.116;6.878;2023-06-26T09:09:01;25.00;99.90
15083;DHT22;7640;53.116;6.878;2023-06-26T09:11:36;24.90;99.90
15083;DHT22;7640;53.116;6.878;2023-06-26T09:14:07;24.80;99.90
15083;DHT22;7640;53.116;6.878;2023-06-26T09:16:41;24.80;99.90
15083;DHT22;7640;53.116;6.878;2023-06-26T09:19:17;24.90;99.90
15083;DHT22;7640;53.116;6.878;2023-06-26T09:21:51;25.00;99.90
15083;DHT22;7640;53.116;6.878;2023-06-26T09:24:32;25.10;99.90
15083;DHT22;7640;53.116;6.878;2023-06-26T09:27:04;25.00;99.90
15083;DHT22;7640;53.116;6.878;2023-06-26T09:29:35;25.00;99.90
15083;DHT22;7640;53.116;6.878;2023-06-26T09:32:10;24.90;99.90
15083;DHT22;7640;53.116;6.878;2023-06-26T09:34:53;24.90;99.90
15083;DHT22;7640;53.116;6.878;2023-06-26T09:37:26;24.90;99.90
15083;DHT22;7640;53.116;6.878;2023-06-26T09:40:07;25.00;99.90
15083;DHT22;7640;53.116;6.878;2023-06-26T09:42:48;24.90;99.90
15083;DHT22;7640;53.116;6.878;2023-06-26T09:45:20;24.80;99.90
15083;DHT22;7640;53.116;6.878;2023-06-26T09:47:52;24.80;99.90
15083;DHT22;7640;53.116;6.878;2023-06-26T09:50:23;24.90;99.90
15083;DHT22;7640;53.116;6.878;2023-06-26T09:52:56;25.00;99.90
15083;DHT22;7640;53.116;6.878;2023-06-26T09:55:35;25.20;99.90
15083;DHT22;7640;53.116;6.878;2023-06-26T09:58:10;25.30;99.90
15083;DHT22;7640;53.116;6.878;2023-06-26T10:00:43;25.40;99.90
15083;DHT22;7640;53.116;6.878;2023-06-26T10:03:13;25.40;99.90
15083;DHT22;7640;53.116;6.878;2023-06-26T10:05:45;25.40;99.90
15083;DHT22;7640;53.116;6.878;2023-06-26T10:08:20;25.50;99.90
15083;DHT22;7640;53.116;6.878;2023-06-26T10:10:57;25.50;99.90
15083;DHT22;7640;53.116;6.878;2023-06-26T10:13:33;25.40;99.90
15083;DHT22;7640;53.116;6.878;2023-06-26T10:16:10;25.40;99.90
15083;DHT22;7640;53.116;6.878;2023-06-26T10:18:43;25.50;99.90
15083;DHT22;7640;53.116;6.878;2023-06-26T10:21:14;25.60;99.90
15083;DHT22;7640;53.116;6.878;2023-06-26T10:23:44;25.60;99.90
15083;DHT22;7640;53.116;6.878;2023-06-26T10:26:19;25.50;99.90
15083;DHT22;7640;53.116;6.878;2023-06-26T10:28:54;25.30;99.90
15083;DHT22;7640;53.116;6.878;2023-06-26T10:31:26;25.30;99.90
15083;DHT22;7640;53.116;6.878;2023-06-26T10:34:01;25.30;99.90
15083;DHT22;7640;53.116;6.878;2023-06-26T10:36:39;25.40;99.90
15083;DHT22;7640;53.116;6.878;2023-06-26T10:39:17;25.50;99.50
15083;DHT22;7640;53.116;6.878;2023-06-26T10:41:55;25.50;99.50
15083;DHT22;7640;53.116;6.878;2023-06-26T10:44:43;25.60;99.10
15083;DHT22;7640;53.116;6.878;2023-06-26T10:47:32;25.70;99.40
15083;DHT22;7640;53.116;6.878;2023-06-26T10:50:20;25.90;99.70
15083;DHT22;7640;53.116;6.878;2023-06-26T10:53:11;26.00;98.80
15083;DHT22;7640;53.116;6.878;2023-06-26T10:55:58;25.90;98.10
15083;DHT22;7640;53.116;6.878;2023-06-26T10:58:41;25.90;97.50
15083;DHT22;7640;53.116;6.878;2023-06-26T11:01:22;26.00;97.50
15083;DHT22;7640;53.116;6.878;2023-06-26T11:04:05;26.10;98.00
15083;DHT22;7640;53.116;6.878;2023-06-26T11:06:39;26.10;98.20
15083;DHT22;7640;53.116;6.878;2023-06-26T11:09:17;26.00;98.00
15083;DHT22;7640;53.116;6.878;2023-06-26T11:12:01;25.90;97.70
15083;DHT22;7640;53.116;6.878;2023-06-26T11:14:35;25.80;97.80
15083;DHT22;7640;53.116;6.878;2023-06-26T11:17:10;25.80;97.60
15083;DHT22;7640;53.116;6.878;2023-06-26T11:19:44;25.80;96.10
15083;DHT22;7640;53.116;6.878;2023-06-26T11:22:16;25.90;95.50
15083;DHT22;7640;53.116;6.878;2023-06-26T11:24:47;26.00;95.70
15083;DHT22;7640;53.116;6.878;2023-06-26T11:27:18;26.20;97.00
15083;DHT22;7640;53.116;6.878;2023-06-26T11:29:56;26.40;97.40
15083;DHT22;7640;53.116;6.878;2023-06-26T11:32:29;26.60;96.80
15083;DHT22;7640;53.116;6.878;2023-06-26T11:35:03;26.60;96.20
15083;DHT22;7640;53.116;6.878;2023-06-26T11:37:36;26.60;95.80
15083;DHT22;7640;53.116;6.878;2023-06-26T11:40:20;26.40;95.00
15083;DHT22;7640;53.116;6.878;2023-06-26T11:42:56;26.40;93.90
15083;DHT22;7640;53.116;6.878;2023-06-26T11:45:32;26.20;94.20
15083;DHT22;7640;53.116;6.878;2023-06-26T11:48:03;26.20;94.30
15083;DHT22;7640;53.116;6.878;2023-06-26T11:50:40;26.40;94.70
15083;DHT22;7640;53.116;6.878;2023-06-26T11:53:15;26.50;94.90
15083;DHT22;7640;53.116;6.878;2023-06-26T11:55:46;26.80;95.30
15083;DHT22;7640;53.116;6.878;2023-06-26T11:58:19;26.90;94.90
15083;DHT22;7640;53.116;6.878;2023-06-26T12:00:57;26.80;93.90
15083;DHT22;7640;53.116;6.878;2023-06-26T12:03:32;26.60;93.90
15083;DHT22;7640;53.116;6.878;2023-06-26T12:06:03;26.60;93.70
15083;DHT22;7640;53.116;6.878;2023-06-26T12:08:36;26.70;94.60
15083;DHT22;7640;53.116;6.878;2023-06-26T12:11:15;26.90;94.70
15083;DHT22;7640;53.116;6.878;2023-06-26T12:13:47;27.20;94.30
15083;DHT22;7640;53.116;6.878;2023-06-26T12:16:24;27.20;94.00
15083;DHT22;7640;53.116;6.878;2023-06-26T12:18:59;27.10;93.80
15083;DHT22;7640;53.116;6.878;2023-06-26T12:21:48;27.00;93.90
15083;DHT22;7640;53.116;6.878;2023-06-26T12:24:20;27.00;93.50
15083;DHT22;7640;53.116;6.878;2023-06-26T12:26:55;26.90;93.30
15083;DHT22;7640;53.116;6.878;2023-06-26T12:29:33;26.70;93.20
15083;DHT22;7640;53.116;6.878;2023-06-26T12:32:14;26.70;93.40
15083;DHT22;7640;53.116;6.878;2023-06-26T12:34:49;26.70;93.20
15083;DHT22;7640;53.116;6.878;2023-06-26T12:37:21;26.80;92.90
15083;DHT22;7640;53.116;6.878;2023-06-26T12:39:53;26.90;92.90
15083;DHT22;7640;53.116;6.878;2023-06-26T12:42:25;27.00;92.70
15083;DHT22;7640;53.116;6.878;2023-06-26T12:44:58;27.20;92.50
15083;DHT22;7640;53.116;6.878;2023-06-26T12:47:41;27.40;92.20
15083;DHT22;7640;53.116;6.878;2023-06-26T12:50:15;27.60;91.80
15083;DHT22;7640;53.116;6.878;2023-06-26T12:52:48;27.70;91.40
15083;DHT22;7640;53.116;6.878;2023-06-26T12:55:17;27.90;91.40
15083;DHT22;7640;53.116;6.878;2023-06-26T12:57:47;28.00;91.10
15083;DHT22;7640;53.116;6.878;2023-06-26T13:00:18;28.10;90.90
15083;DHT22;7640;53.116;6.878;2023-06-26T13:02:56;28.00;90.30
15083;DHT22;7640;53.116;6.878;2023-06-26T13:05:29;28.00;90.20
15083;DHT22;7640;53.116;6.878;2023-06-26T13:08:06;28.10;89.40
15083;DHT22;7640;53.116;6.878;2023-06-26T13:10:37;28.20;89.80
15083;DHT22;7640;53.116;6.878;2023-06-26T13:13:08;28.20;89.90
15083;DHT22;7640;53.116;6.878;2023-06-26T13:15:40;28.10;90.10
15083;DHT22;7640;53.116;6.878;2023-06-26T13:18:18;27.80;89.40
15083;DHT22;7640;53.116;6.878;2023-06-26T13:20:47;27.40;90.20
15083;DHT22;7640;53.116;6.878;2023-06-26T13:23:18;27.00;90.30
15083;DHT22;7640;53.116;6.878;2023-06-26T13:25:48;26.90;90.60
15083;DHT22;7640;53.116;6.878;2023-06-26T13:28:20;26.90;90.80
15083;DHT22;7640;53.116;6.878;2023-06-26T13:30:50;26.90;90.80
15083;DHT22;7640;53.116;6.878;2023-06-26T13:33:21;26.90;91.50
15083;DHT22;7640;53.116;6.878;2023-06-26T13:35:54;27.00;91.70
15083;DHT22;7640;53.116;6.878;2023-06-26T13:38:25;27.20;91.70
15083;DHT22;7640;53.116;6.878;2023-06-26T13:40:55;27.40;91.70
15083;DHT22;7640;53.116;6.878;2023-06-26T13:43:31;27.60;91.50
15083;DHT22;7640;53.116;6.878;2023-06-26T13:46:04;27.90;91.30
15083;DHT22;7640;53.116;6.878;2023-06-26T13:48:38;28.00;90.50
15083;DHT22;7640;53.116;6.878;2023-06-26T13:51:10;27.80;90.20
15083;DHT22;7640;53.116;6.878;2023-06-26T13:53:40;27.50;90.50
15083;DHT22;7640;53.116;6.878;2023-06-26T13:56:11;27.30;91.00
15083;DHT22;7640;53.116;6.878;2023-06-26T13:58:42;27.30;91.00
15083;DHT22;7640;53.116;6.878;2023-06-26T14:01:14;27.20;91.10
15083;DHT22;7640;53.116;6.878;2023-06-26T14:03:50;27.00;92.10
15083;DHT22;7640;53.116;6.878;2023-06-26T14:06:22;27.00;91.50
15083;DHT22;7640;53.116;6.878;2023-06-26T14:08:53;27.00;91.60
15083;DHT22;7640;53.116;6.878;2023-06-26T14:11:23;27.00;92.30
15083;DHT22;7640;53.116;6.878;2023-06-26T14:13:53;27.10;92.10
15083;DHT22;7640;53.116;6.878;2023-06-26T14:16:24;27.20;91.90
15083;DHT22;7640;53.116;6.878;2023-06-26T14:18:58;27.40;91.80
15083;DHT22;7640;53.116;6.878;2023-06-26T14:21:34;27.70;91.20
15083;DHT22;7640;53.116;6.878;2023-06-26T14:24:04;28.10;91.00
15083;DHT22;7640;53.116;6.878;2023-06-26T14:26:37;28.50;90.10
15083;DHT22;7640;53.116;6.878;2023-06-26T14:29:06;28.80;90.10
15083;DHT22;7640;53.116;6.878;2023-06-26T14:31:36;29.20;89.40
15083;DHT22;7640;53.116;6.878;2023-06-26T14:34:07;29.20;88.20
15083;DHT22;7640;53.116;6.878;2023-06-26T14:36:38;28.70;88.20
15083;DHT22;7640;53.116;6.878;2023-06-26T14:39:14;28.10;89.60
15083;DHT22;7640;53.116;6.878;2023-06-26T14:41:46;27.60;90.80
15083;DHT22;7640;53.116;6.878;2023-06-26T14:44:16;27.40;91.70
15083;DHT22;7640;53.116;6.878;2023-06-26T14:46:46;27.60;92.10
15083;DHT22;7640;53.116;6.878;2023-06-26T14:49:20;27.90;91.80
15083;DHT22;7640;53.116;6.878;2023-06-26T14:51:51;28.10;91.40
15083;DHT22;7640;53.116;6.878;2023-06-26T14:54:22;28.10;91.20
15083;DHT22;7640;53.116;6.878;2023-06-26T14:57:00;28.20;92.10
15083;DHT22;7640;53.116;6.878;2023-06-26T14:59:39;28.60;91.60
15083;DHT22;7640;53.116;6.878;2023-06-26T15:02:10;29.20;90.50
15083;DHT22;7640;53.116;6.878;2023-06-26T15:04:42;29.60;87.90
15083;DHT22;7640;53.116;6.878;2023-06-26T15:07:15;29.50;85.20
15083;DHT22;7640;53.116;6.878;2023-06-26T15:09:45;29.20;85.10
15083;DHT22;7640;53.116;6.878;2023-06-26T15:12:16;29.10;85.20
15083;DHT22;7640;53.116;6.878;2023-06-26T15:14:47;28.90;86.00
15083;DHT22;7640;53.116;6.878;2023-06-26T15:17:17;28.60;86.00
15083;DHT22;7640;53.116;6.878;2023-06-26T15:19:50;28.30;86.50
15083;DHT22;7640;53.116;6.878;2023-06-26T15:22:22;28.00;88.50
15083;DHT22;7640;53.116;6.878;2023-06-26T15:24:59;28.00;89.40
15083;DHT22;7640;53.116;6.878;2023-06-26T15:27:42;28.10;88.50
15083;DHT22;7640;53.116;6.878;2023-06-26T15:30:14;28.10;89.70
15083;DHT22;7640;53.116;6.878;2023-06-26T15:32:45;28.00;89.80
15083;DHT22;7640;53.116;6.878;2023-06-26T15:35:18;27.90;89.90
15083;DHT22;7640;53.116;6.878;2023-06-26T15:37:48;27.60;90.40
15083;DHT22;7640;53.116;6.878;2023-06-26T15:40:18;27.20;91.20
15083;DHT22;7640;53.116;6.878;2023-06-26T15:42:49;27.20;91.90
15083;DHT22;7640;53.116;6.878;2023-06-26T15:45:20;27.30;91.40
15083;DHT22;7640;53.116;6.878;2023-06-26T15:47:54;27.20;91.10
15083;DHT22;7640;53.116;6.878;2023-06-26T15:50:28;26.90;91.50
15083;DHT22;7640;53.116;6.878;2023-06-26T15:53:03;26.40;92.20
15083;DHT22;7640;53.116;6.878;2023-06-26T15:55:36;26.10;92.80
15083;DHT22;7640;53.116;6.878;2023-06-26T15:58:08;25.90;93.10
15083;DHT22;7640;53.116;6.878;2023-06-26T16:00:45;26.00;92.00
15083;DHT22;7640;53.116;6.878;2023-06-26T16:03:18;26.10;91.40
15083;DHT22;7640;53.116;6.878;2023-06-26T16:05:50;26.40;91.70
15083;DHT22;7640;53.116;6.878;2023-06-26T16:08:23;27.10;91.30
15083;DHT22;7640;53.116;6.878;2023-06-26T16:10:55;28.00;90.40
15083;DHT22;7640;53.116;6.878;2023-06-26T16:13:27;28.80;87.70
15083;DHT22;7640;53.116;6.878;2023-06-26T16:16:00;29.30;85.50
15083;DHT22;7640;53.116;6.878;2023-06-26T16:18:31;29.70;84.80
15083;DHT22;7640;53.116;6.878;2023-06-26T16:21:10;30.10;83.30
15083;DHT22;7640;53.116;6.878;2023-06-26T16:23:42;30.50;82.40
15083;DHT22;7640;53.116;6.878;2023-06-26T16:26:13;30.60;82.00